Latest Weather Observations for Yanakie

IDV60801

Issued at 10:32 am EST Friday 22 September 2017 (issued every 30 minutes, with the page automatically refreshed every 10 minutes)

About weather observations | Map of weather stations | Latest weather observations for VIC | Other Formats
Station Details ID: 085301 Name: YANAKIE Lat: -38.81 Lon: 146.19 Height: 13.3 m
Data from the previous 72 hours. | See also: Recent months at Yanakie
Date/Time
EST
Temp
°C
App
Temp
°C
Dew
Point
°C
Rel
Hum
%
Delta-T
°C
Wind Press
QNH
hPa
Press
MSL
hPa
Rain since
9am
mm
Dir  Spd
km/h
Gust
km/h
Spd
kts
Gust
kts
22/10:30am 13.6 12.0 11.7 88 1.0 ENE 11 17 6 9 1009.8 1009.8 0.0
22/10:00am 13.1 12.2 12.6 97 0.3 ENE 9 13 5 7 1009.9 1009.9 0.0
22/09:30am 12.7 12.2 12.5 99 0.1 NE 7 11 4 6 1010.4 1010.4 0.0
22/09:00am 12.6 12.2 12.4 99 0.1 E 6 7 3 4 1010.5 1010.5 0.0
22/08:30am 11.6 11.3 11.4 99 0.1 NE 4 7 2 4 1010.7 1010.7 0.0
22/08:00am 11.1 10.3 11.1 100 0.0 NE 6 7 3 4 1010.6 1010.6 0.0
22/07:30am 10.4 9.4 10.4 100 0.0 NNE 6 7 3 4 1010.6 1010.6 0.0
22/07:00am 6.5 5.7 6.4 99 0.0 CALM 0 0 0 0 1010.6 1010.6 0.0
22/06:30am 6.5 5.7 6.4 99 0.0 CALM 0 0 0 0 1010.4 1010.4 0.0
22/06:00am 6.9 6.2 6.8 99 0.0 CALM 0 0 0 0 1010.2 1010.2 0.0
22/05:30am 5.9 4.9 5.8 99 0.0 CALM 0 0 0 0 1010.1 1010.1 0.0
22/05:00am 6.8 6.0 6.7 99 0.0 CALM 0 2 0 1 1010.0 1010.0 0.0
22/04:30am 6.7 5.9 6.6 99 0.0 CALM 0 0 0 0 1010.0 1010.0 0.0
22/04:00am 8.1 7.6 8.0 99 0.0 CALM 0 0 0 0 1010.0 1010.0 0.0
22/03:30am 7.0 6.3 6.9 99 0.0 CALM 0 0 0 0 1010.1 1010.1 0.0
22/03:00am 7.1 5.6 7.0 99 0.0 WNW 4 6 2 3 1010.3 1010.3 0.0
22/02:30am 7.0 5.1 6.9 99 0.0 WNW 6 7 3 4 1010.6 1010.6 0.0
22/02:00am 8.0 6.4 7.9 99 0.0 WNW 6 6 3 3 1010.9 1010.9 0.0
22/01:30am 7.8 6.1 7.7 99 0.0 NW 6 7 3 4 1011.3 1011.3 0.0
22/01:00am 8.0 6.2 7.9 99 0.0 WNW 7 7 4 4 1011.5 1011.5 0.0
22/12:30am 8.0 6.2 7.9 99 0.0 WNW 7 7 4 4 1011.6 1011.6 0.0
22/12:00am 8.4 6.7 8.3 99 0.0 WNW 7 9 4 5 1011.6 1011.6 0.0
 
Date/Time
EST
Temp
°C
App
Temp
°C
Dew
Point
°C
Rel
Hum
%
Delta-T
°C
Wind Press
QNH
hPa
Press
MSL
hPa
Rain since
9am
mm
Dir  Spd
km/h
Gust
km/h
Spd
kts
Gust
kts
21/11:30pm 8.5 7.0 8.4 99 0.0 WNW 6 7 3 4 1011.4 1011.4 0.0
21/11:00pm 8.9 7.5 8.8 99 0.0 NW 6 9 3 5 1011.2 1011.2 0.0
21/10:30pm 9.2 7.9 9.1 99 0.0 WNW 6 6 3 3 1011.5 1011.5 0.0
21/10:00pm 9.5 8.3 9.4 99 0.0 WNW 6 6 3 3 1011.3 1011.3 0.0
21/09:30pm 9.2 7.7 9.1 99 0.0 W 7 9 4 5 1011.0 1011.0 0.0
21/09:00pm 10.4 10.5 10.2 99 0.1 CALM 0 0 0 0 1010.9 1010.9 0.0
21/08:30pm 10.6 9.4 10.4 99 0.1 W 7 9 4 5 1010.6 1010.6 0.0
21/08:00pm 12.2 11.5 12.0 99 0.1 WSW 7 9 4 5 1010.5 1010.5 0.0
21/07:30pm 12.6 10.9 12.4 99 0.1 SW 13 17 7 9 1009.7 1009.7 0.0
21/07:00pm 13.1 10.3 12.6 97 0.3 WSW 19 22 10 12 1009.6 1009.6 0.0
21/06:30pm 13.7 11.6 12.3 91 0.8 WSW 15 20 8 11 1009.0 1009.0 0.0
21/06:00pm 14.1 11.4 11.8 86 1.2 SW 17 24 9 13 1008.6 1008.6 0.0
21/05:30pm 15.3 10.3 12.2 82 1.7 WSW 30 43 16 23 1008.4 1008.4 0.0
21/05:22pm 17.1 15.5 12.8 76 2.4 WNW 13 43 7 23 1008.1 1008.1 0.0
21/05:00pm 18.9 17.9 13.3 70 3.2 WNW 11 19 6 10 1007.2 1007.2 0.0
21/04:30pm 20.5 18.4 13.5 64 4.0 NW 17 28 9 15 1006.9 1006.9 0.0
21/04:00pm 20.0 18.6 13.5 66 3.7 NW 13 19 7 10 1006.9 1006.9 0.0
21/03:30pm 20.0 18.6 13.5 66 3.7 NW 13 22 7 12 1006.6 1006.6 0.0
21/03:00pm 19.7 15.6 11.5 59 4.5 NW 24 33 13 18 1006.4 1006.4 0.0
21/02:30pm 19.8 16.5 11.6 59 4.5 NW 20 35 11 19 1006.6 1006.6 0.0
21/02:00pm 21.1 16.7 11.7 55 5.3 NNW 26 43 14 23 1006.4 1006.4 0.0
21/01:30pm 20.9 16.1 11.8 56 5.1 NW 28 41 15 22 1006.8 1006.8 0.0
21/01:03pm 20.8 15.7 12.0 57 4.9 NNW 30 50 16 27 1006.6 1006.6 0.0
21/01:00pm 20.7 15.0 11.3 55 5.2 NNW 32 50 17 27 1006.8 1006.8 0.0
21/12:47pm 20.3 15.5 11.5 57 4.9 NNW 28 46 15 25 1007.0 1007.0 0.0
21/12:30pm 20.5 16.2 12.2 59 4.7 NNW 26 41 14 22 1007.7 1007.7 0.0
21/12:17pm 19.7 14.4 11.2 58 4.7 NNW 30 50 16 27 1007.8 1007.8 0.0
21/12:00pm 20.3 15.8 12.5 61 4.4 NNW 28 43 15 23 1008.4 1008.4 0.0
21/11:30am 19.1 16.4 11.7 62 4.1 NNW 17 30 9 16 1008.8 1008.8 0.0
21/11:00am 16.6 16.1 12.2 75 2.4 NE 6 13 3 7 1008.9 1008.9 0.0
21/10:30am 15.8 15.5 11.6 76 2.3 NE 4 15 2 8 1009.6 1009.6 0.0
21/10:00am 15.0 13.6 11.0 77 2.1 NE 9 15 5 8 1010.2 1010.2 0.0
21/09:30am 14.9 14.0 11.5 80 1.8 NNE 7 11 4 6 1010.8 1010.8 0.0
21/09:00am 14.3 13.4 11.3 82 1.6 NE 7 13 4 7 1011.2 1011.2 0.0
21/08:30am 12.7 11.9 11.8 94 0.5 NE 7 13 4 7 1011.6 1011.6 0.0
21/08:00am 12.3 11.6 12.1 99 0.1 NE 7 9 4 5 1011.6 1011.6 0.0
21/07:30am 11.1 9.7 10.9 99 0.1 ENE 9 15 5 8 1011.6 1011.6 0.0
21/07:00am 10.6 9.1 10.4 99 0.1 ENE 9 13 5 7 1011.6 1011.6 0.0
21/06:30am 9.7 7.9 9.6 99 0.0 E 9 17 5 9 1011.6 1011.6 0.0
21/06:00am 9.5 7.3 9.4 99 0.0 ENE 11 15 6 8 1011.6 1011.6 0.0
21/05:30am 9.0 7.1 8.9 99 0.0 NE 9 11 5 6 1011.8 1011.8 0.0
21/05:00am 9.5 7.7 9.4 99 0.0 NE 9 13 5 7 1011.9 1011.9 0.0
21/04:30am 9.1 7.6 9.0 99 0.0 NE 7 13 4 7 1012.3 1012.3 0.0
21/04:00am 9.0 7.6 8.9 99 0.0 NNE 6 9 3 5 1012.8 1012.8 0.0
21/03:30am 8.8 7.2 8.7 99 0.0 NE 7 11 4 6 1012.9 1012.9 0.0
21/03:00am 8.4 6.7 8.3 99 0.0 ENE 7 9 4 5 1013.2 1013.2 0.0
21/02:30am 8.8 7.4 8.7 99 0.0 ENE 6 9 3 5 1013.5 1013.5 0.0
21/02:00am 8.5 6.4 8.4 99 0.0 NE 9 11 5 6 1013.6 1013.6 0.0
21/01:30am 9.0 7.1 8.9 99 0.0 ENE 9 13 5 7 1013.9 1013.9 0.0
21/01:00am 8.7 7.1 8.6 99 0.0 ENE 7 9 4 5 1014.3 1014.3 0.0
21/12:30am 9.1 7.6 9.0 99 0.0 NE 7 11 4 6 1014.8 1014.8 0.0
21/12:00am 9.4 7.9 9.1 98 0.1 NE 7 9 4 5 1015.2 1015.2 0.0
 
Date/Time
EST
Temp
°C
App
Temp
°C
Dew
Point
°C
Rel
Hum
%
Delta-T
°C
Wind Press
QNH
hPa
Press
MSL
hPa
Rain since
9am
mm
Dir  Spd
km/h
Gust
km/h
Spd
kts
Gust
kts
20/11:30pm 10.1 9.7 9.8 98 0.2 NNE 2 7 1 4 1015.4 1015.4 0.0
20/11:00pm 10.3 9.0 9.8 97 0.3 E 7 11 4 6 1015.5 1015.5 0.0
20/10:30pm 10.4 8.3 9.9 97 0.3 E 11 15 6 8 1015.7 1015.7 0.0
20/10:00pm 10.6 9.0 10.3 98 0.2 E 9 13 5 7 1015.7 1015.7 0.0
20/09:30pm 10.5 9.3 10.3 99 0.1 E 7 13 4 7 1015.7 1015.7 0.0
20/09:00pm 10.9 9.4 10.7 99 0.1 ENE 9 17 5 9 1015.7 1015.7 0.0
20/08:30pm 11.0 9.9 10.8 99 0.1 NE 7 15 4 8 1016.1 1016.1 0.0
20/08:00pm 11.3 10.2 10.8 97 0.3 NE 7 13 4 7 1015.9 1015.9 0.0
20/07:30pm 11.0 9.3 9.9 93 0.6 ENE 9 11 5 6 1015.8 1015.8 0.0
20/07:00pm 10.7 10.6 9.6 93 0.6 CALM 0 0 0 0 1015.8 1015.8 0.0
20/06:30pm 11.2 11.1 9.3 88 1.0 CALM 0 0 0 0 1015.6 1015.6 0.0
20/06:00pm 13.3 13.5 10.7 84 1.4 CALM 0 0 0 0 1015.4 1015.4 0.0
20/05:30pm 14.6 14.2 11.2 80 1.8 N 4 7 2 4 1015.0 1015.0 0.0
20/05:00pm 15.2 14.3 11.4 78 2.0 NW 7 13 4 7 1015.1 1015.1 0.0
20/04:30pm 15.6 14.4 11.6 77 2.2 NW 9 15 5 8 1015.1 1015.1 0.0
20/04:00pm 16.0 14.0 11.4 74 2.5 WNW 13 19 7 10 1015.4 1015.4 0.0
20/03:30pm 16.0 13.0 11.8 76 2.3 WNW 19 30 10 16 1015.6 1015.6 0.0
20/03:00pm 15.7 11.9 11.3 75 2.4 WNW 22 32 12 17 1015.9 1015.9 0.0
20/02:30pm 15.9 12.8 11.5 75 2.4 WNW 19 26 10 14 1016.1 1016.1 0.0
20/02:00pm 15.6 12.3 11.0 74 2.4 NW 19 26 10 14 1016.2 1016.2 0.0
20/01:30pm 15.2 12.0 11.2 77 2.1 NW 19 26 10 14 1017.0 1017.0 0.0
20/01:00pm 14.4 10.8 10.4 77 2.1 WNW 20 30 11 16 1017.8 1017.8 0.0
20/12:30pm 14.7 10.9 11.3 80 1.8 WNW 22 39 12 21 1018.5 1018.5 0.0
20/12:00pm 14.7 11.4 11.5 81 1.7 WNW 20 28 11 15 1019.2 1019.2 0.0
20/11:30am 14.2 10.9 10.8 80 1.8 WNW 19 26 10 14 1019.5 1019.5 0.0
20/11:00am 13.7 10.0 10.3 80 1.8 WNW 20 26 11 14 1019.5 1019.5 0.0
20/10:30am 13.4 10.3 10.4 82 1.6 NW 17 24 9 13 1019.7 1019.7 0.0
20/10:00am 12.7 9.5 10.1 84 1.3 NW 17 22 9 12 1020.1 1020.1 0.0
20/09:30am 12.1 8.4 10.0 87 1.1 NW 20 26 11 14 1020.6 1020.6 0.0
20/09:00am 11.1 7.1 9.2 88 0.9 NW 20 28 11 15 1020.4 1020.4 0.0
20/08:30am 10.9 7.2 9.3 90 0.8 NNW 19 24 10 13 1020.4 1020.4 0.0
20/08:00am 9.9 6.9 9.4 97 0.2 NNW 15 22 8 12 1020.4 1020.4 0.0
20/07:30am 9.1 6.0 9.0 99 0.0 NW 15 19 8 10 1020.7 1020.7 0.0
20/07:00am 9.0 6.7 8.9 99 0.0 NNW 11 17 6 9 1020.7 1020.7 0.0
20/06:30am 8.5 6.8 8.4 99 0.0 NNW 7 11 4 6 1020.6 1020.6 0.0
20/06:00am 8.5 6.4 8.4 99 0.0 NW 9 13 5 7 1020.5 1020.5 0.0
20/05:30am 8.5 6.0 8.4 99 0.0 NW 11 15 6 8 1020.4 1020.4 0.0
20/05:00am 8.4 6.3 8.3 99 0.0 NW 9 13 5 7 1020.1 1020.1 0.0
20/04:30am 8.3 6.2 8.2 99 0.0 NW 9 13 5 7 1019.9 1019.9 0.0
20/04:00am 8.1 5.9 8.0 99 0.0 NW 9 13 5 7 1019.9 1019.9 0.0
20/03:30am 8.5 6.4 8.4 99 0.0 NW 9 13 5 7 1019.8 1019.8 0.0
20/03:00am 8.4 6.3 8.3 99 0.0 NW 9 11 5 6 1020.1 1020.1 0.0
20/02:30am 8.6 6.6 8.5 99 0.0 NW 9 11 5 6 1020.3 1020.3 0.0
20/02:00am 9.0 6.3 8.9 99 0.0 NW 13 19 7 10 1020.4 1020.4 0.0
20/01:30am 8.9 6.9 8.5 97 0.2 WNW 9 13 5 7 1020.7 1020.7 0.0
20/01:00am 9.0 6.4 7.9 93 0.5 WNW 11 13 6 7 1020.9 1020.9 0.0
20/12:30am 10.0 6.0 8.1 88 0.9 W 19 26 10 14 1021.1 1021.1 0.0
20/12:00am 10.4 6.7 8.0 85 1.2 WSW 17 24 9 13 1021.0 1021.0 0.0
 
Date/Time
EST
Temp
°C
App
Temp
°C
Dew
Point
°C
Rel
Hum
%
Delta-T
°C
Wind Press
QNH
hPa
Press
MSL
hPa
Rain since
9am
mm
Dir  Spd
km/h
Gust
km/h
Spd
kts
Gust
kts
19/11:30pm 10.0 6.2 7.4 84 1.2 SW 17 24 9 13 1021.0 1021.0 0.0
19/11:00pm 10.4 5.6 7.5 82 1.4 WSW 22 32 12 17 1021.1 1021.1 0.0
19/10:30pm 10.0 5.7 7.8 86 1.1 WSW 20 32 11 17 1021.3 1021.3 0.0
19/10:00pm 9.0 6.6 8.7 98 0.1 WNW 11 13 6 7 1021.4 1021.4 0.0
19/09:30pm 9.5 4.6 8.4 93 0.5 WSW 24 33 13 18 1021.3 1021.3 0.0
19/09:00pm 9.4 5.3 8.0 91 0.7 W 19 22 10 12 1021.2 1021.2 0.0
19/08:30pm 9.7 4.2 7.5 86 1.0 WSW 26 37 14 20 1021.0 1021.0 0.0
19/08:00pm 9.6 5.6 8.4 92 0.6 W 19 26 10 14 1021.0 1021.0 0.0
19/07:30pm 9.6 5.4 8.4 92 0.6 WSW 20 28 11 15 1020.8 1020.8 0.0
19/07:00pm 9.6 4.6 8.0 90 0.8 WSW 24 32 13 17 1020.5 1020.5 0.0
19/06:30pm 9.7 5.1 8.0 89 0.8 WSW 22 32 12 17 1020.3 1020.3 0.0
19/06:00pm 10.6 5.2 8.0 84 1.3 WSW 26 35 14 19 1019.9 1019.9 0.0
19/05:30pm 10.7 5.0 8.3 85 1.2 W 28 39 15 21 1019.5 1019.5 0.0
19/05:00pm 10.7 3.9 7.9 83 1.4 W 33 44 18 24 1019.3 1019.3 0.0
19/04:30pm 11.4 3.8 7.7 78 1.8 WSW 37 54 20 29 1019.0 1019.0 0.0
19/04:00pm 12.2 4.5 8.7 79 1.7 W 39 50 21 27 1018.6 1018.6 0.0
19/03:30pm 12.2 4.4 8.1 76 2.0 W 39 50 21 27 1018.4 1018.4 0.0
19/03:00pm 11.1 5.5 8.7 85 1.2 WSW 28 41 15 22 1018.4 1018.4 0.0
19/02:30pm 11.2 3.4 8.4 83 1.4 WSW 39 52 21 28 1018.2 1018.2 0.0
19/02:00pm 12.1 4.3 8.4 78 1.8 WSW 39 50 21 27 1017.8 1017.8 0.0
19/01:30pm 10.4 1.5 7.5 82 1.4 W 44 59 24 32 1017.8 1017.8 0.0
19/01:27pm 11.0 2.6 8.8 86 1.1 WSW 43 59 23 32 1017.7 1017.7 0.0
19/01:00pm 10.2 2.8 8.5 89 0.8 SW 37 54 20 29 1017.6 1017.6 0.0
19/12:30pm 11.9 4.6 8.6 80 1.6 WSW 37 48 20 26 1017.2 1017.2 0.0
19/12:00pm 12.3 5.4 8.8 79 1.7 WSW 35 50 19 27 1017.2 1017.2 0.0
19/11:30am 11.5 4.3 9.1 85 1.2 WSW 37 50 20 27 1016.9 1016.9 0.0
19/11:03am 10.3 1.6 7.7 84 1.2 WSW 43 61 23 33 1016.9 1016.9 0.0
19/11:00am 11.8 4.1 8.6 81 1.6 WSW 39 52 21 28 1016.7 1016.7 0.0

Other Formats:

Comma delimited format used in spreadsheet applications
http://www.bom.gov.au/fwo/IDV60801/IDV60801.94911.axf

JavaScript Object Notation format (JSON) in row-major order
http://www.bom.gov.au/fwo/IDV60801/IDV60801.94911.json